Time;durP1;ratioP1;P1;durP2;ratioP2;P2;SDS_P1;SDS_P2;PMS_P1;PMS_P2;Temp;Humidity;BMP_temperature;BMP_pressure;BME280_temperature;BME280_humidity;BME280_pressure;Samples;Min_cycle;Max_cycle;Signal;HPM_P1;HPM_P2
2022/10/05 00:03:13;;;;;;;6.90;6.20;;;;;;;;;;5093944;28;22071;-74
2022/10/05 00:06:06;;;;;;;6.00;5.40;;;;;;;;;;5084706;28;20615;-75
2022/10/05 00:09:19;;;;;;;6.30;5.67;;;;;;;;;;5098005;28;20842;-74
2022/10/05 00:12:30;;;;;;;6.83;5.70;;;;;;;;;;5088157;28;20574;-75
2022/10/05 00:15:24;;;;;;;6.30;5.70;;;;;;;;;;5089059;28;20468;-71
2022/10/05 00:18:43;;;;;;;;;;;;;;;;;;;;;
2022/10/05 00:21:52;;;;;;;8.23;5.80;;;;;;;;;;5104823;27;20449;-74
2022/10/05 00:24:58;;;;;;;6.60;6.00;;;;;;;;;;5100867;27;20460;-74
2022/10/05 00:27:57;;;;;;;8.47;6.13;;;;;;;;;;5096923;28;20983;-74
2022/10/05 00:30:56;;;;;;;10.00;6.67;;;;;;;;;;5094002;28;20492;-74
2022/10/05 00:34:25;;;;;;;7.90;6.40;;;;;;;;;;5019678;28;20452;-74
2022/10/05 00:37:36;;;;;;;7.17;5.10;;;;;;;;;;5018877;28;20483;-74
2022/10/05 00:41:00;;;;;;;6.23;5.40;;;;;;;;;;5019733;28;20479;-75
2022/10/05 00:47:37;;;;;;;7.07;6.37;;;;;;;;;;5016923;28;20486;-75
2022/10/05 00:50:34;;;;;;;6.03;5.43;;;;;;;;;;5012135;28;20479;-74
2022/10/05 00:53:47;;;;;;;6.30;5.60;;;;;;;;;;5010610;28;20457;-75
2022/10/05 00:56:55;;;;;;;7.93;5.70;;;;;;;;;;5014821;28;20480;-75
2022/10/05 01:00:07;;;;;;;;;;;;;;;;;;;;;
2022/10/05 01:03:13;;;;;;;9.73;6.03;;;;;;;;;;5099128;27;20505;-74
2022/10/05 01:06:14;;;;;;;6.90;5.50;;;;;;;;;;5092283;27;20832;-74
2022/10/05 01:09:17;;;;;;;6.77;6.17;;;;;;;;;;5095218;27;20448;-74
2022/10/05 01:12:17;;;;;;;6.70;6.00;;;;;;;;;;5087646;27;20479;-76
2022/10/05 01:15:28;;;;;;;7.43;6.10;;;;;;;;;;5087349;27;20577;-74
2022/10/05 01:18:37;;;;;;;8.00;6.13;;;;;;;;;;5094345;28;20551;-74
2022/10/05 01:21:46;;;;;;;6.63;5.80;;;;;;;;;;5093163;28;20448;-74
2022/10/05 01:24:59;;;;;;;6.33;5.73;;;;;;;;;;5091873;27;20972;-74
2022/10/05 01:28:08;;;;;;;6.47;5.87;;;;;;;;;;5095980;28;20481;-75
2022/10/05 01:31:10;;;;;;;7.20;6.50;;;;;;;;;;5092478;28;20483;-75
2022/10/05 01:34:21;;;;;;;6.60;5.93;;;;;;;;;;5090897;28;20457;-75
2022/10/05 01:37:34;;;;;;;6.83;6.13;;;;;;;;;;5098400;28;20477;-74
2022/10/05 01:40:56;;;;;;;7.20;6.50;;;;;;;;;;5093097;28;20536;-74
2022/10/05 01:44:03;;;;;;;5.90;5.30;;;;;;;;;;5091061;28;20441;-74
2022/10/05 01:47:05;;;;;;;6.03;5.53;;;;;;;;;;5094272;28;20473;-74
2022/10/05 01:50:04;;;;;;;7.07;6.03;;;;;;;;;;5092659;28;20459;-75
2022/10/05 01:53:02;;;;;;;7.20;5.40;;;;;;;;;;5088837;28;20456;-75
2022/10/05 01:56:03;;;;;;;7.53;5.80;;;;;;;;;;5085240;28;20844;-74
2022/10/05 01:59:01;;;;;;;8.80;6.37;;;;;;;;;;5087980;27;20451;-75
2022/10/05 02:02:10;;;;;;;7.40;6.63;;;;;;;;;;5095066;27;20542;-75
2022/10/05 02:05:19;;;;;;;8.00;6.80;;;;;;;;;;5086804;28;20463;-74
2022/10/05 02:08:27;;;;;;;6.87;6.13;;;;;;;;;;5087758;28;22160;-74
2022/10/05 02:11:27;;;;;;;6.73;5.90;;;;;;;;;;5075926;28;20468;-74
2022/10/05 02:14:59;;;;;;;7.63;5.90;;;;;;;;;;5061405;27;20459;-74
2022/10/05 02:17:59;;;;;;;6.53;5.90;;;;;;;;;;5090187;28;20488;-74
2022/10/05 02:21:08;;;;;;;7.73;6.37;;;;;;;;;;5092182;27;20578;-74
2022/10/05 02:24:08;;;;;;;6.17;5.50;;;;;;;;;;5096025;28;20453;-74
2022/10/05 02:27:22;;;;;;;6.70;6.00;;;;;;;;;;5089028;28;20477;-74
2022/10/05 02:30:32;;;;;;;8.40;7.07;;;;;;;;;;5089557;28;20534;-74
2022/10/05 02:33:52;;;;;;;6.90;5.93;;;;;;;;;;5085661;28;20475;-74
2022/10/05 02:36:50;;;;;;;7.23;6.33;;;;;;;;;;5094809;28;20861;-74
2022/10/05 02:40:09;;;;;;;7.70;6.33;;;;;;;;;;5095882;28;20547;-74
2022/10/05 02:46:40;;;;;;;6.50;5.90;;;;;;;;;;5085793;28;20483;-74
2022/10/05 02:49:52;;;;;;;7.13;6.50;;;;;;;;;;5091523;28;20589;-74
2022/10/05 02:59:57;;;;;;;8.20;7.40;;;;;;;;;;5078776;28;21022;-74
2022/10/05 03:03:21;;;;;;;8.27;5.90;;;;;;;;;;5088456;28;20463;-75
2022/10/05 03:06:30;;;;;;;6.80;6.10;;;;;;;;;;5047868;28;20483;-74
2022/10/05 03:09:36;;;;;;;7.13;6.40;;;;;;;;;;5049278;28;20641;-74
2022/10/05 03:12:41;;;;;;;7.20;6.60;;;;;;;;;;5041416;28;20593;-74
2022/10/05 03:15:57;;;;;;;8.50;6.87;;;;;;;;;;5049591;28;20568;-75
2022/10/05 03:19:05;;;;;;;7.27;6.57;;;;;;;;;;5051606;28;21070;-75
2022/10/05 03:25:29;;;;;;;7.10;6.40;;;;;;;;;;5047820;28;20477;-74
2022/10/05 03:28:53;;;;;;;8.10;7.10;;;;;;;;;;5046459;28;20508;-74
2022/10/05 03:31:57;;;;;;;7.87;7.10;;;;;;;;;;5050852;28;20476;-74
2022/10/05 03:34:58;;;;;;;9.80;6.87;;;;;;;;;;5054291;28;20450;-74
2022/10/05 03:41:30;;;;;;;8.20;7.00;;;;;;;;;;5048813;28;20458;-74
2022/10/05 03:44:39;;;;;;;8.20;7.03;;;;;;;;;;5087624;27;20443;-74
2022/10/05 03:51:25;;;;;;;8.00;7.10;;;;;;;;;;5093972;27;20444;-74
2022/10/05 03:54:23;;;;;;;8.47;7.53;;;;;;;;;;5097192;27;20819;-74
2022/10/05 03:57:38;;;;;;;9.33;7.23;;;;;;;;;;5096459;28;20476;-75
2022/10/05 04:00:58;;;;;;;10.47;7.57;;;;;;;;;;5073831;27;20472;-74
2022/10/05 04:04:15;;;;;;;8.40;7.50;;;;;;;;;;5095476;27;20489;-74
2022/10/05 04:07:36;;;;;;;8.53;7.23;;;;;;;;;;5090297;27;20490;-75
2022/10/05 04:10:52;;;;;;;9.03;7.80;;;;;;;;;;5100607;27;20589;-74
2022/10/05 04:13:59;;;;;;;8.80;7.90;;;;;;;;;;5092513;28;20574;-74
2022/10/05 04:16:55;;;;;;;8.20;7.40;;;;;;;;;;5097933;28;20499;-75
2022/10/05 04:23:22;;;;;;;7.40;6.70;;;;;;;;;;5094261;27;20452;-74
2022/10/05 04:26:23;;;;;;;7.97;7.20;;;;;;;;;;5095415;27;20499;-74
2022/10/05 04:29:41;;;;;;;9.43;7.60;;;;;;;;;;5094660;27;20463;-75
2022/10/05 04:32:48;;;;;;;8.00;7.20;;;;;;;;;;5087163;28;20476;-75
2022/10/05 04:35:51;;;;;;;9.77;7.93;;;;;;;;;;5089595;27;20476;-74
2022/10/05 04:42:35;;;;;;;8.40;7.33;;;;;;;;;;5090576;27;20497;-74
2022/10/05 04:45:59;;;;;;;8.50;7.60;;;;;;;;;;5090597;27;20513;-74
2022/10/05 04:52:22;;;;;;;8.63;7.73;;;;;;;;;;5068056;27;20490;-74
2022/10/05 04:58:50;;;;;;;11.03;8.33;;;;;;;;;;5087122;27;20585;-74
2022/10/05 05:01:51;;;;;;;8.93;7.40;;;;;;;;;;5084515;27;20470;-74
2022/10/05 05:05:11;;;;;;;;;;;;;;;;;;;;;
2022/10/05 05:08:37;;;;;;;8.67;7.87;;;;;;;;;;5084232;28;20484;-73
2022/10/05 05:11:44;;;;;;;9.80;7.40;;;;;;;;;;5081627;28;20452;-75
2022/10/05 05:15:16;;;;;;;8.30;7.40;;;;;;;;;;5083185;27;20581;-74
2022/10/05 05:18:40;;;;;;;9.43;7.93;;;;;;;;;;4963272;28;20524;-73
2022/10/05 05:21:56;;;;;;;10.00;9.00;;;;;;;;;;4979630;28;21924;-73
2022/10/05 05:25:03;;;;;;;13.20;8.77;;;;;;;;;;5088035;27;21380;-73
2022/10/05 05:27:58;;;;;;;8.40;7.53;;;;;;;;;;5081040;27;20482;-73
2022/10/05 05:31:07;;;;;;;9.63;8.63;;;;;;;;;;5082220;27;20456;-74
2022/10/05 05:34:09;;;;;;;10.70;8.67;;;;;;;;;;5076283;27;20475;-75
2022/10/05 05:37:40;;;;;;;12.87;8.63;;;;;;;;;;5071991;27;21015;-73
2022/10/05 05:41:05;;;;;;;10.73;8.90;;;;;;;;;;5084559;27;20866;-74
2022/10/05 05:44:11;;;;;;;9.63;8.50;;;;;;;;;;5076605;27;20464;-75
2022/10/05 05:47:40;;;;;;;;;;;;;;;;;;;;;
2022/10/05 05:50:59;;;;;;;10.57;8.57;;;;;;;;;;5107272;28;20453;-71
2022/10/05 05:54:17;;;;;;;10.60;9.57;;;;;;;;;;5111503;27;20495;-71
2022/10/05 05:57:26;;;;;;;10.20;8.47;;;;;;;;;;5101109;27;20486;-71
2022/10/05 06:00:21;;;;;;;11.13;9.93;;;;;;;;;;5098293;28;20448;-72
2022/10/05 06:03:19;;;;;;;10.07;8.90;;;;;;;;;;5082435;28;20452;-72
2022/10/05 06:06:21;;;;;;;9.70;8.03;;;;;;;;;;5077731;28;20477;-72
2022/10/05 06:09:21;;;;;;;10.00;9.00;;;;;;;;;;5078222;27;20636;-72
2022/10/05 06:12:18;;;;;;;11.10;9.40;;;;;;;;;;5085885;27;20520;-72
2022/10/05 06:15:20;;;;;;;10.20;9.00;;;;;;;;;;5090613;28;21177;-72
2022/10/05 06:18:12;;;;;;;10.90;8.83;;;;;;;;;;5090736;27;20653;-71
2022/10/05 06:21:02;;;;;;;13.00;8.87;;;;;;;;;;5094318;27;20437;-72
2022/10/05 06:24:04;;;;;;;10.50;9.40;;;;;;;;;;5089301;28;20444;-71
2022/10/05 06:27:10;;;;;;;9.43;8.53;;;;;;;;;;5093962;28;20932;-69
2022/10/05 06:30:10;;;;;;;10.70;8.17;;;;;;;;;;5091305;27;20447;-69
2022/10/05 06:33:09;;;;;;;9.40;8.50;;;;;;;;;;5093104;28;20499;-70
2022/10/05 06:36:06;;;;;;;9.97;8.17;;;;;;;;;;5094434;28;20833;-70
2022/10/05 06:39:06;;;;;;;9.63;8.43;;;;;;;;;;5096945;28;20531;-72
2022/10/05 06:42:12;;;;;;;10.60;8.30;;;;;;;;;;5095711;28;20480;-72
2022/10/05 06:45:15;;;;;;;10.27;9.17;;;;;;;;;;5091733;27;20468;-72
2022/10/05 06:48:12;;;;;;;10.47;9.37;;;;;;;;;;5095456;28;20475;-72
2022/10/05 06:51:13;;;;;;;9.57;8.50;;;;;;;;;;5098955;28;20453;-70
2022/10/05 06:54:08;;;;;;;10.73;8.97;;;;;;;;;;5097244;28;20590;-70
2022/10/05 06:57:04;;;;;;;9.37;8.47;;;;;;;;;;5099905;28;20476;-69
2022/10/05 06:59:59;;;;;;;9.30;8.23;;;;;;;;;;5096828;28;20472;-70
2022/10/05 07:02:51;;;;;;;10.47;8.13;;;;;;;;;;5095327;28;20452;-70
2022/10/05 07:05:53;;;;;;;9.77;8.23;;;;;;;;;;5093225;28;20472;-70
2022/10/05 07:09:04;;;;;;;10.50;8.40;;;;;;;;;;5094091;28;20464;-71
2022/10/05 07:12:03;;;;;;;9.87;8.00;;;;;;;;;;5094526;28;20453;-71
2022/10/05 07:14:59;;;;;;;10.07;8.80;;;;;;;;;;5088693;28;20483;-71
2022/10/05 07:17:56;;;;;;;10.30;9.30;;;;;;;;;;5090731;28;21091;-70
2022/10/05 07:20:55;;;;;;;9.67;8.63;;;;;;;;;;5090984;28;20941;-71
2022/10/05 07:24:19;;;;;;;9.17;8.27;;;;;;;;;;5092204;28;20440;-71
2022/10/05 07:27:13;;;;;;;9.60;8.63;;;;;;;;;;5095710;28;20484;-71
2022/10/05 07:30:09;;;;;;;11.40;9.50;;;;;;;;;;5092759;28;20995;-71
2022/10/05 07:33:09;;;;;;;11.37;8.47;;;;;;;;;;5093262;28;20463;-71
2022/10/05 07:39:18;;;;;;;9.57;8.63;;;;;;;;;;5087232;28;20467;-71
2022/10/05 07:42:17;;;;;;;9.40;8.50;;;;;;;;;;5092935;28;20470;-71
2022/10/05 07:45:13;;;;;;;10.10;9.10;;;;;;;;;;5082105;28;20445;-71
2022/10/05 07:48:07;;;;;;;9.20;8.30;;;;;;;;;;5093987;28;21091;-71
2022/10/05 07:51:00;;;;;;;11.40;8.90;;;;;;;;;;5090555;28;20445;-70
2022/10/05 07:53:52;;;;;;;12.30;9.17;;;;;;;;;;5093698;28;20887;-71
2022/10/05 07:56:54;;;;;;;8.27;7.43;;;;;;;;;;5098971;27;20467;-71
2022/10/05 07:59:53;;;;;;;10.23;8.07;;;;;;;;;;5097256;27;20967;-71
2022/10/05 08:02:48;;;;;;;10.37;9.23;;;;;;;;;;5098939;28;20567;-71
2022/10/05 08:05:39;;;;;;;10.33;9.23;;;;;;;;;;5088114;27;20816;-71
2022/10/05 08:08:34;;;;;;;10.53;8.30;;;;;;;;;;5100077;27;20798;-70
2022/10/05 08:11:31;;;;;;;11.73;9.20;;;;;;;;;;5098650;28;20993;-71
2022/10/05 08:14:37;;;;;;;9.87;8.57;;;;;;;;;;5089672;28;20795;-71
2022/10/05 08:17:33;;;;;;;9.73;8.60;;;;;;;;;;5097208;27;20579;-70
2022/10/05 08:20:37;;;;;;;8.80;7.93;;;;;;;;;;5094991;27;20441;-71
2022/10/05 08:23:32;;;;;;;9.93;8.93;;;;;;;;;;5097455;27;20463;-71
2022/10/05 08:26:29;;;;;;;9.63;8.63;;;;;;;;;;5098269;27;20472;-71
2022/10/05 08:29:28;;;;;;;12.33;8.57;;;;;;;;;;5093954;27;21098;-71
2022/10/05 08:32:33;;;;;;;10.30;8.83;;;;;;;;;;5097257;27;20452;-71
2022/10/05 08:35:30;;;;;;;11.27;9.57;;;;;;;;;;5091490;27;20807;-70
2022/10/05 08:38:27;;;;;;;8.77;7.67;;;;;;;;;;5095545;27;20452;-71
2022/10/05 08:41:36;;;;;;;11.50;8.57;;;;;;;;;;5097686;28;20482;-70
2022/10/05 08:44:48;;;;;;;12.20;8.90;;;;;;;;;;5095249;27;20456;-71
2022/10/05 08:47:53;;;;;;;11.47;8.40;;;;;;;;;;5092935;27;20537;-71
2022/10/05 08:50:58;;;;;;;10.07;8.80;;;;;;;;;;5095509;27;20452;-71
2022/10/05 08:54:03;;;;;;;12.97;9.23;;;;;;;;;;5091491;27;20575;-71
2022/10/05 08:56:59;;;;;;;8.83;7.97;;;;;;;;;;5091798;27;20976;-70
2022/10/05 09:00:02;;;;;;;9.50;8.50;;;;;;;;;;5096739;27;20448;-70
2022/10/05 09:03:08;;;;;;;9.30;8.40;;;;;;;;;;5095964;27;20449;-70
2022/10/05 09:06:18;;;;;;;12.20;8.00;;;;;;;;;;5087392;28;20479;-69
2022/10/05 09:09:17;;;;;;;9.77;7.80;;;;;;;;;;5094213;28;20888;-70
2022/10/05 09:12:17;;;;;;;9.53;8.47;;;;;;;;;;5088244;27;20568;-70
2022/10/05 09:15:22;;;;;;;9.37;8.43;;;;;;;;;;5089697;28;20479;-70
2022/10/05 09:18:33;;;;;;;9.40;8.40;;;;;;;;;;5093926;27;21098;-70
2022/10/05 09:21:37;;;;;;;10.17;8.07;;;;;;;;;;5092382;28;20452;-71
2022/10/05 09:24:41;;;;;;;8.90;8.00;;;;;;;;;;5092533;27;20448;-70
2022/10/05 09:27:37;;;;;;;10.73;8.07;;;;;;;;;;5093596;28;20541;-70
2022/10/05 09:30:41;;;;;;;9.27;8.27;;;;;;;;;;5091297;28;20456;-71
2022/10/05 09:33:47;;;;;;;9.93;8.30;;;;;;;;;;5092716;27;20471;-70
2022/10/05 09:36:59;;;;;;;11.30;8.50;;;;;;;;;;5090570;27;20471;-71
2022/10/05 09:40:04;;;;;;;8.73;7.83;;;;;;;;;;5092070;28;20448;-71
2022/10/05 09:43:06;;;;;;;8.97;7.80;;;;;;;;;;5091502;28;20456;-70
2022/10/05 09:46:33;;;;;;;8.97;8.17;;;;;;;;;;5073778;28;20497;-71
2022/10/05 09:49:47;;;;;;;8.57;7.63;;;;;;;;;;5046275;27;20461;-71
2022/10/05 09:52:48;;;;;;;11.10;9.87;;;;;;;;;;5093988;28;20794;-71
2022/10/05 09:55:55;;;;;;;9.97;9.07;;;;;;;;;;5103992;28;20491;-71
2022/10/05 09:59:06;;;;;;;10.67;9.67;;;;;;;;;;5113156;28;20466;-70
2022/10/05 10:02:04;;;;;;;9.40;8.50;;;;;;;;;;5114923;28;20470;-70
2022/10/05 10:05:12;;;;;;;9.73;8.30;;;;;;;;;;5092191;27;20452;-71
2022/10/05 10:08:12;;;;;;;10.37;9.27;;;;;;;;;;5095598;28;20479;-70
2022/10/05 10:11:12;;;;;;;8.53;7.60;;;;;;;;;;5091647;28;20459;-71
2022/10/05 10:14:12;;;;;;;9.33;8.40;;;;;;;;;;5094927;28;20467;-71
2022/10/05 10:17:23;;;;;;;9.57;8.77;;;;;;;;;;5088824;28;20543;-70
2022/10/05 10:20:30;;;;;;;8.53;7.83;;;;;;;;;;5091224;27;20470;-70
2022/10/05 10:23:36;;;;;;;8.53;7.47;;;;;;;;;;5092064;28;20462;-70
2022/10/05 10:26:46;;;;;;;8.30;7.60;;;;;;;;;;5086643;27;20958;-71
2022/10/05 10:29:51;;;;;;;7.57;6.90;;;;;;;;;;5098271;28;20448;-70
2022/10/05 10:33:10;;;;;;;7.60;6.93;;;;;;;;;;5088579;28;20440;-71
2022/10/05 10:36:03;;;;;;;8.20;7.40;;;;;;;;;;5084639;28;20491;-70
2022/10/05 10:39:00;;;;;;;7.50;6.77;;;;;;;;;;5092772;28;20468;-70
2022/10/05 10:42:09;;;;;;;8.80;7.90;;;;;;;;;;5092273;28;20443;-71
2022/10/05 10:45:14;;;;;;;8.40;7.60;;;;;;;;;;5086878;28;20452;-71
2022/10/05 10:48:07;;;;;;;7.80;7.10;;;;;;;;;;5089659;28;20467;-71
2022/10/05 10:51:18;;;;;;;8.23;7.33;;;;;;;;;;5087965;28;20461;-70
2022/10/05 10:54:22;;;;;;;8.77;7.93;;;;;;;;;;5087027;28;20451;-71
2022/10/05 10:57:14;;;;;;;8.40;7.77;;;;;;;;;;5090523;28;20491;-71
2022/10/05 11:00:19;;;;;;;8.50;7.60;;;;;;;;;;5088805;28;20473;-71
2022/10/05 11:03:31;;;;;;;8.63;7.93;;;;;;;;;;5083702;28;20455;-70
2022/10/05 11:06:37;;;;;;;8.83;8.13;;;;;;;;;;5090667;28;20476;-71
2022/10/05 11:09:43;;;;;;;8.90;8.00;;;;;;;;;;5084589;28;20585;-70
2022/10/05 11:13:07;;;;;;;9.37;8.53;;;;;;;;;;5089371;28;20448;-70
2022/10/05 11:16:26;;;;;;;8.80;7.90;;;;;;;;;;5086618;28;20483;-71
2022/10/05 11:19:46;;;;;;;9.80;8.90;;;;;;;;;;5076087;28;22541;-71
2022/10/05 11:22:58;;;;;;;9.07;8.33;;;;;;;;;;5085802;28;20466;-71
2022/10/05 11:26:04;;;;;;;9.73;8.93;;;;;;;;;;5092981;28;20467;-70
2022/10/05 11:29:07;;;;;;;8.80;8.20;;;;;;;;;;5091931;27;20451;-71
2022/10/05 11:32:21;;;;;;;8.23;7.63;;;;;;;;;;5088730;27;20827;-72
2022/10/05 11:35:38;;;;;;;9.00;8.30;;;;;;;;;;5087444;27;20840;-70
2022/10/05 11:38:47;;;;;;;10.03;9.23;;;;;;;;;;5084558;27;20514;-70
2022/10/05 11:41:56;;;;;;;9.57;8.77;;;;;;;;;;5095002;28;20964;-70
2022/10/05 11:45:10;;;;;;;8.63;7.93;;;;;;;;;;5096488;28;20447;-70
2022/10/05 11:48:15;;;;;;;8.60;8.00;;;;;;;;;;5091650;27;20800;-70
2022/10/05 11:51:37;;;;;;;8.20;7.50;;;;;;;;;;5086104;27;20448;-70
2022/10/05 11:54:32;;;;;;;7.70;7.00;;;;;;;;;;5014350;28;20447;-71
2022/10/05 11:57:49;;;;;;;8.83;8.13;;;;;;;;;;5089386;27;20487;-71
2022/10/05 12:00:43;;;;;;;8.47;7.87;;;;;;;;;;5087024;27;20455;-71
2022/10/05 12:03:42;;;;;;;8.30;7.50;;;;;;;;;;5094923;27;20777;-70
2022/10/05 12:06:43;;;;;;;8.87;8.10;;;;;;;;;;5097593;28;20478;-71
2022/10/05 12:13:18;;;;;;;7.20;6.60;;;;;;;;;;5097075;27;20462;-71
2022/10/05 12:16:14;;;;;;;6.90;6.40;;;;;;;;;;5081288;27;21046;-70
2022/10/05 12:19:12;;;;;;;6.50;6.10;;;;;;;;;;5083215;27;20555;-70
2022/10/05 12:22:14;;;;;;;6.50;5.83;;;;;;;;;;5092231;27;21287;-71
2022/10/05 12:25:20;;;;;;;7.03;6.43;;;;;;;;;;5078041;27;20568;-72
2022/10/05 12:28:17;;;;;;;6.03;5.53;;;;;;;;;;5089411;27;20495;-72
2022/10/05 12:31:19;;;;;;;6.40;5.80;;;;;;;;;;5081900;27;20461;-72
2022/10/05 12:34:15;;;;;;;5.83;5.43;;;;;;;;;;5087911;27;20575;-73
2022/10/05 12:37:12;;;;;;;5.33;4.93;;;;;;;;;;5089533;27;20850;-72
2022/10/05 12:40:06;;;;;;;5.77;5.27;;;;;;;;;;5096319;27;20813;-71
2022/10/05 12:43:08;;;;;;;7.00;5.77;;;;;;;;;;5092740;27;20477;-71
2022/10/05 12:46:05;;;;;;;6.67;5.10;;;;;;;;;;5083959;27;20515;-72
2022/10/05 12:49:24;;;;;;;5.53;5.13;;;;;;;;;;5094541;27;20452;-71
2022/10/05 12:52:23;;;;;;;5.13;4.83;;;;;;;;;;5012250;28;21041;-71
2022/10/05 12:55:16;;;;;;;6.47;5.87;;;;;;;;;;5084671;27;20472;-71
2022/10/05 12:58:18;;;;;;;5.00;4.67;;;;;;;;;;5091817;27;20478;-71
2022/10/05 13:01:15;;;;;;;4.67;4.37;;;;;;;;;;5092694;27;20447;-72
2022/10/05 13:04:16;;;;;;;5.53;5.10;;;;;;;;;;5095302;27;20479;-71
2022/10/05 13:07:25;;;;;;;5.77;5.27;;;;;;;;;;5093012;27;20499;-71
2022/10/05 13:10:31;;;;;;;5.60;5.10;;;;;;;;;;5097962;28;20453;-72
2022/10/05 13:13:38;;;;;;;5.93;5.53;;;;;;;;;;5092342;27;20455;-71
2022/10/05 13:16:33;;;;;;;5.90;5.50;;;;;;;;;;5086189;27;21374;-71
2022/10/05 13:19:34;;;;;;;5.50;5.20;;;;;;;;;;5084624;27;20445;-71
2022/10/05 13:22:32;;;;;;;5.50;5.10;;;;;;;;;;5095884;28;20451;-71
2022/10/05 13:25:34;;;;;;;6.73;5.47;;;;;;;;;;5091035;27;20869;-71
2022/10/05 13:28:28;;;;;;;6.30;5.27;;;;;;;;;;5092367;27;20471;-72
2022/10/05 13:31:29;;;;;;;8.90;6.10;;;;;;;;;;5088332;27;20497;-72
2022/10/05 13:34:27;;;;;;;5.90;5.30;;;;;;;;;;5092324;27;20448;-72
2022/10/05 13:37:20;;;;;;;5.60;5.20;;;;;;;;;;5085527;28;20582;-73
2022/10/05 13:40:18;;;;;;;6.00;5.50;;;;;;;;;;5092546;28;20436;-73
2022/10/05 13:43:26;;;;;;;6.23;5.67;;;;;;;;;;5081834;28;20468;-73
2022/10/05 13:46:24;;;;;;;5.20;4.90;;;;;;;;;;5091352;27;20480;-73
2022/10/05 13:49:20;;;;;;;6.83;6.13;;;;;;;;;;5083391;27;20456;-71
2022/10/05 13:52:29;;;;;;;6.30;5.70;;;;;;;;;;5084384;28;20545;-72
2022/10/05 13:55:30;;;;;;;6.50;5.73;;;;;;;;;;5088164;28;20476;-72
2022/10/05 13:58:26;;;;;;;6.60;6.10;;;;;;;;;;5089126;27;20642;-72
2022/10/05 14:01:26;;;;;;;5.30;4.90;;;;;;;;;;5092513;28;20454;-72
2022/10/05 14:04:16;;;;;;;6.00;5.60;;;;;;;;;;5091238;28;22270;-73
2022/10/05 14:07:22;;;;;;;5.57;5.27;;;;;;;;;;5091788;27;20482;-72
2022/10/05 14:10:14;;;;;;;6.07;5.57;;;;;;;;;;5096755;28;20953;-72
2022/10/05 14:13:22;;;;;;;5.90;5.50;;;;;;;;;;5103889;28;20443;-72
2022/10/05 14:16:24;;;;;;;5.37;5.07;;;;;;;;;;5094456;27;22038;-71
2022/10/05 14:19:17;;;;;;;9.60;6.30;;;;;;;;;;5089420;28;20459;-71
2022/10/05 14:22:12;;;;;;;5.83;5.43;;;;;;;;;;5087988;28;20517;-72
2022/10/05 14:25:22;;;;;;;6.00;5.50;;;;;;;;;;5087770;27;21177;-72
2022/10/05 14:28:27;;;;;;;5.97;5.50;;;;;;;;;;5083755;27;20883;-71
2022/10/05 14:31:27;;;;;;;6.93;6.20;;;;;;;;;;5083118;28;20459;-70
2022/10/05 14:34:34;;;;;;;5.93;5.43;;;;;;;;;;5089820;28;20524;-71
2022/10/05 14:37:24;;;;;;;5.40;5.00;;;;;;;;;;5095701;28;20472;-71
2022/10/05 14:40:24;;;;;;;5.50;5.00;;;;;;;;;;5094110;28;20940;-71
2022/10/05 14:43:20;;;;;;;5.70;5.30;;;;;;;;;;5095229;28;20555;-72
2022/10/05 14:46:23;;;;;;;5.50;5.10;;;;;;;;;;5082634;28;20994;-72
2022/10/05 14:49:22;;;;;;;5.20;4.80;;;;;;;;;;5089810;28;20452;-71
2022/10/05 14:52:33;;;;;;;5.57;4.80;;;;;;;;;;5092211;28;20459;-71
2022/10/05 14:56:05;;;;;;;5.70;5.20;;;;;;;;;;5096338;28;20467;-71
2022/10/05 14:59:12;;;;;;;5.40;4.90;;;;;;;;;;5097609;28;20460;-71
2022/10/05 15:02:31;;;;;;;5.90;5.33;;;;;;;;;;5087805;28;20575;-72
2022/10/05 15:05:32;;;;;;;5.50;5.00;;;;;;;;;;5092849;28;20524;-71
2022/10/05 15:08:30;;;;;;;5.63;5.00;;;;;;;;;;5100364;28;20974;-71
2022/10/05 15:11:33;;;;;;;4.97;4.60;;;;;;;;;;5096013;27;20448;-71
2022/10/05 15:14:22;;;;;;;5.07;4.53;;;;;;;;;;5089765;27;21017;-71
2022/10/05 15:17:15;;;;;;;6.10;4.83;;;;;;;;;;5091388;28;20484;-71
2022/10/05 15:20:10;;;;;;;4.80;4.40;;;;;;;;;;5090489;28;20441;-72
2022/10/05 15:23:08;;;;;;;5.07;4.70;;;;;;;;;;5094014;27;20456;-72
2022/10/05 15:26:09;;;;;;;4.90;4.50;;;;;;;;;;5091479;28;20497;-72
2022/10/05 15:29:18;;;;;;;5.57;5.07;;;;;;;;;;5099973;27;20452;-72
2022/10/05 15:32:17;;;;;;;4.77;4.40;;;;;;;;;;5089199;27;20463;-72
2022/10/05 15:35:20;;;;;;;5.00;4.57;;;;;;;;;;5091857;28;20477;-71
2022/10/05 15:38:20;;;;;;;5.77;3.90;;;;;;;;;;5081188;28;20468;-74
2022/10/05 15:41:20;;;;;;;4.07;3.80;;;;;;;;;;5098375;27;20463;-73
2022/10/05 15:44:23;;;;;;;4.33;4.03;;;;;;;;;;5090961;27;20538;-71
2022/10/05 15:47:19;;;;;;;4.47;4.10;;;;;;;;;;5082753;27;20487;-71
2022/10/05 15:50:15;;;;;;;4.27;3.97;;;;;;;;;;5083386;27;20452;-72
2022/10/05 15:53:09;;;;;;;4.17;3.87;;;;;;;;;;5098473;27;21086;-72
2022/10/05 15:56:02;;;;;;;4.20;3.90;;;;;;;;;;5089856;27;20494;-72
2022/10/05 15:58:58;;;;;;;4.53;4.17;;;;;;;;;;5091810;27;20495;-71
2022/10/05 16:01:59;;;;;;;4.90;4.40;;;;;;;;;;5092278;27;20439;-71
2022/10/05 16:04:58;;;;;;;4.40;4.00;;;;;;;;;;5097940;28;20451;-72
2022/10/05 16:11:16;;;;;;;4.30;3.90;;;;;;;;;;5087761;27;20479;-71
2022/10/05 16:14:16;;;;;;;4.33;3.97;;;;;;;;;;5099137;27;20456;-72
2022/10/05 16:17:22;;;;;;;4.63;4.33;;;;;;;;;;5098718;28;20476;-71
2022/10/05 16:20:23;;;;;;;4.90;4.50;;;;;;;;;;5096468;27;21422;-71
2022/10/05 16:23:19;;;;;;;4.90;4.50;;;;;;;;;;5097834;27;20812;-72
2022/10/05 16:26:13;;;;;;;4.60;4.20;;;;;;;;;;5093780;27;20469;-71
2022/10/05 16:29:10;;;;;;;4.57;4.20;;;;;;;;;;5097895;28;20450;-72
2022/10/05 16:32:03;;;;;;;6.30;4.50;;;;;;;;;;5094535;28;20540;-71
2022/10/05 16:35:07;;;;;;;5.00;4.50;;;;;;;;;;5098612;27;20483;-72
2022/10/05 16:38:07;;;;;;;4.77;4.27;;;;;;;;;;5099782;28;20479;-72
2022/10/05 16:41:06;;;;;;;4.97;4.57;;;;;;;;;;5095541;27;20470;-71
2022/10/05 16:44:01;;;;;;;6.13;4.47;;;;;;;;;;5096886;27;20468;-72
2022/10/05 16:47:23;;;;;;;5.43;4.93;;;;;;;;;;5095784;27;20476;-71
2022/10/05 16:50:22;;;;;;;5.30;4.90;;;;;;;;;;5097728;28;20480;-71
2022/10/05 16:53:19;;;;;;;5.00;4.60;;;;;;;;;;5095802;28;20494;-72
2022/10/05 16:56:11;;;;;;;5.00;4.70;;;;;;;;;;5088804;27;20834;-71
2022/10/05 16:59:11;;;;;;;5.40;4.90;;;;;;;;;;5088153;27;20609;-72
2022/10/05 17:02:07;;;;;;;5.17;4.77;;;;;;;;;;5078361;27;21493;-72
2022/10/05 17:05:01;;;;;;;6.70;5.07;;;;;;;;;;5093986;27;20505;-72
2022/10/05 17:08:08;;;;;;;5.50;5.00;;;;;;;;;;5088660;28;20465;-71
2022/10/05 17:11:13;;;;;;;5.57;4.90;;;;;;;;;;5097901;27;20818;-71
2022/10/05 17:14:14;;;;;;;5.00;4.60;;;;;;;;;;5098122;27;20449;-71
2022/10/05 17:17:16;;;;;;;6.13;4.70;;;;;;;;;;5096194;28;20475;-71
2022/10/05 17:20:20;;;;;;;4.73;4.33;;;;;;;;;;5079692;27;20453;-71
2022/10/05 17:23:34;;;;;;;6.73;4.73;;;;;;;;;;5088869;28;20518;-72
2022/10/05 17:26:42;;;;;;;5.10;4.70;;;;;;;;;;5096988;28;20956;-72
2022/10/05 17:29:50;;;;;;;6.07;4.80;;;;;;;;;;5068292;27;20460;-75
2022/10/05 17:32:55;;;;;;;5.53;5.10;;;;;;;;;;5091397;27;20460;-75
2022/10/05 17:35:51;;;;;;;5.57;5.10;;;;;;;;;;5087951;28;20468;-74
2022/10/05 17:38:50;;;;;;;6.40;5.90;;;;;;;;;;5094408;27;20480;-74
2022/10/05 17:41:42;;;;;;;6.33;5.83;;;;;;;;;;5084227;27;20453;-72
2022/10/05 17:44:44;;;;;;;8.10;5.20;;;;;;;;;;5075170;28;20476;-72
2022/10/05 17:47:52;;;;;;;6.00;4.93;;;;;;;;;;5077368;28;20488;-72
2022/10/05 17:57:20;;;;;;;6.03;5.53;;;;;;;;;;5083329;27;20490;-72
2022/10/05 18:00:31;;;;;;;6.30;5.20;;;;;;;;;;5093702;28;20462;-72
2022/10/05 18:03:37;;;;;;;5.60;5.20;;;;;;;;;;5086850;27;20574;-72
2022/10/05 18:06:36;;;;;;;6.10;5.60;;;;;;;;;;5087065;27;20562;-72
2022/10/05 18:09:37;;;;;;;7.00;4.73;;;;;;;;;;5088795;27;20453;-72
2022/10/05 18:12:45;;;;;;;9.70;6.77;;;;;;;;;;5091695;27;20458;-72
2022/10/05 18:15:45;;;;;;;6.97;6.30;;;;;;;;;;5078433;27;20548;-73
2022/10/05 18:18:53;;;;;;;6.10;5.60;;;;;;;;;;5073154;28;20552;-74
2022/10/05 18:21:59;;;;;;;6.03;5.53;;;;;;;;;;5090632;27;20537;-72
2022/10/05 18:25:02;;;;;;;6.13;5.60;;;;;;;;;;5083926;28;20448;-72
2022/10/05 18:28:05;;;;;;;7.67;5.87;;;;;;;;;;5087255;28;20484;-72
2022/10/05 18:31:06;;;;;;;6.80;5.63;;;;;;;;;;5089929;28;21023;-72
2022/10/05 18:34:10;;;;;;;6.17;5.67;;;;;;;;;;5078291;28;21745;-72
2022/10/05 18:37:10;;;;;;;4.90;4.50;;;;;;;;;;5089298;28;20563;-71
2022/10/05 18:40:13;;;;;;;5.87;5.37;;;;;;;;;;5090815;28;21032;-71
2022/10/05 18:43:09;;;;;;;4.43;4.03;;;;;;;;;;5094832;28;20468;-72
2022/10/05 18:46:06;;;;;;;4.90;4.47;;;;;;;;;;5094391;28;20876;-71
2022/10/05 18:49:00;;;;;;;3.87;3.57;;;;;;;;;;5092003;28;20975;-72
2022/10/05 18:51:51;;;;;;;3.80;3.50;;;;;;;;;;5093656;28;20471;-71
2022/10/05 18:54:55;;;;;;;5.00;4.50;;;;;;;;;;5094075;28;20453;-72
2022/10/05 18:57:53;;;;;;;4.07;3.77;;;;;;;;;;5092283;28;20479;-73
2022/10/05 19:00:58;;;;;;;4.27;3.97;;;;;;;;;;5087806;28;20440;-72
2022/10/05 19:03:56;;;;;;;3.60;3.33;;;;;;;;;;5091263;28;20858;-72
2022/10/05 19:06:50;;;;;;;4.10;3.70;;;;;;;;;;5093561;28;20476;-73
2022/10/05 19:09:54;;;;;;;5.33;3.50;;;;;;;;;;5095361;28;20459;-73
2022/10/05 19:12:54;;;;;;;4.70;4.30;;;;;;;;;;5087750;28;20998;-72
2022/10/05 19:15:50;;;;;;;7.00;4.00;;;;;;;;;;5096699;28;20551;-72
2022/10/05 19:18:54;;;;;;;4.63;4.00;;;;;;;;;;5095246;28;20872;-72
2022/10/05 19:21:48;;;;;;;6.60;4.20;;;;;;;;;;5090650;28;20459;-72